createdAt,value
2019-04-29T00:01:31.113Z,82.09
2019-04-29T00:03:59.521Z,81.64
2019-04-29T00:06:27.931Z,81.15
2019-04-29T00:08:56.467Z,80.29
2019-04-29T00:11:24.944Z,79.11
2019-04-29T00:13:53.414Z,79.12
2019-04-29T00:16:32.765Z,79.56
2019-04-29T00:19:18.822Z,80.27
2019-04-29T00:21:47.486Z,81.39
2019-04-29T00:24:16.325Z,82.39
2019-04-29T00:26:44.815Z,83.06
2019-04-29T00:29:13.200Z,83.56
2019-04-29T00:31:41.581Z,83.92
2019-04-29T00:34:09.993Z,84.28
2019-04-29T00:36:40.090Z,84.61
2019-04-29T00:39:10.291Z,84.89
2019-04-29T00:41:46.105Z,85.19
2019-04-29T00:44:16.374Z,85.64
2019-04-29T00:46:45.062Z,85.79
2019-04-29T00:49:13.554Z,85.83
2019-04-29T00:51:41.936Z,86.02
2019-04-29T00:54:12.411Z,86.04
2019-04-29T00:56:40.931Z,86.10
2019-04-29T00:59:09.325Z,85.92
2019-04-29T01:01:38.030Z,85.97
2019-04-29T01:04:06.691Z,85.85
2019-04-29T01:06:35.066Z,85.65
2019-04-29T01:09:06.618Z,85.58
2019-04-29T01:11:35.176Z,85.51
2019-04-29T01:14:03.638Z,85.36
2019-04-29T01:16:32.294Z,85.49
2019-04-29T01:19:03.760Z,85.49
2019-04-29T01:21:31.211Z,85.42
2019-04-29T01:23:59.619Z,85.34
2019-04-29T01:26:29.944Z,85.34
2019-04-29T01:29:02.519Z,85.34
2019-04-29T01:31:31.801Z,85.74
2019-04-29T01:34:02.073Z,85.85
2019-04-29T01:36:32.138Z,86.21
2019-04-29T01:39:02.009Z,86.29
2019-04-29T01:41:47.987Z,86.62
2019-04-29T01:44:18.058Z,86.53
2019-04-29T01:46:46.439Z,86.67
2019-04-29T01:49:14.880Z,86.95
2019-04-29T01:51:43.612Z,86.90
2019-04-29T01:54:12.013Z,86.97
2019-04-29T01:56:40.499Z,86.91
2019-04-29T01:59:08.937Z,86.97
2019-04-29T02:01:37.375Z,87.09
2019-04-29T02:04:05.960Z,86.80
2019-04-29T02:06:34.349Z,86.69
2019-04-29T02:09:03.281Z,86.43
2019-04-29T02:11:31.711Z,86.26
2019-04-29T02:14:00.124Z,86.08
2019-04-29T02:16:28.515Z,86.01
2019-04-29T02:18:56.942Z,85.94
2019-04-29T02:21:25.315Z,86.07
2019-04-29T02:23:55.367Z,86.19
2019-04-29T02:26:23.782Z,86.50
2019-04-29T02:28:52.166Z,86.51
2019-04-29T02:31:38.836Z,86.69
2019-04-29T02:34:08.303Z,86.86
2019-04-29T02:36:37.616Z,87.01
2019-04-29T02:39:20.879Z,86.71
2019-04-29T02:42:07.033Z,87.09
2019-04-29T02:44:35.511Z,87.10
2019-04-29T02:47:03.971Z,87.32
2019-04-29T02:49:32.374Z,87.43
2019-04-29T02:52:01.132Z,87.41
2019-04-29T02:54:30.008Z,87.14
2019-04-29T02:57:05.928Z,87.17
2019-04-29T02:59:38.430Z,87.16
2019-04-29T03:02:24.395Z,87.08
2019-04-29T03:05:05.959Z,87.17
2019-04-29T03:07:34.421Z,86.86
2019-04-29T03:10:03.196Z,86.93
2019-04-29T03:12:31.668Z,87.11
2019-04-29T03:15:00.444Z,87.43
2019-04-29T03:17:29.264Z,87.42
2019-04-29T03:20:14.838Z,87.36
2019-04-29T03:22:44.887Z,87.66
2019-04-29T03:25:13.414Z,87.96
2019-04-29T03:27:41.801Z,87.73
2019-04-29T03:30:10.450Z,87.93
2019-04-29T03:32:38.902Z,88.16
2019-04-29T03:35:07.442Z,87.87
2019-04-29T03:37:35.863Z,87.57
2019-04-29T03:40:06.136Z,88.10
2019-04-29T03:42:34.523Z,87.93
2019-04-29T03:45:03.013Z,87.99
2019-04-29T03:47:31.387Z,88.04
2019-04-29T03:49:59.817Z,88.12
2019-04-29T03:52:28.228Z,87.69
2019-04-29T03:54:56.710Z,87.93
2019-04-29T03:57:25.088Z,87.95
2019-04-29T03:59:56.982Z,88.01
2019-04-29T04:02:25.690Z,87.84
2019-04-29T04:05:11.654Z,88.07
2019-04-29T04:07:41.707Z,88.33
2019-04-29T04:10:10.912Z,88.04
2019-04-29T04:12:39.287Z,87.91
2019-04-29T04:15:07.853Z,87.81
2019-04-29T04:17:49.828Z,87.66
2019-04-29T04:20:18.611Z,87.55
2019-04-29T04:22:47.779Z,87.58
2019-04-29T04:25:18.368Z,87.57
2019-04-29T04:27:47.689Z,87.54
2019-04-29T04:30:17.099Z,87.50
2019-04-29T04:32:45.507Z,87.46
2019-04-29T04:35:15.599Z,87.46
2019-04-29T04:37:45.602Z,87.71
2019-04-29T04:40:26.689Z,87.54
2019-04-29T04:42:55.096Z,87.10
2019-04-29T04:45:23.490Z,87.16
2019-04-29T04:47:51.981Z,86.76
2019-04-29T04:50:20.458Z,86.45
2019-04-29T04:52:48.866Z,86.66
2019-04-29T04:55:18.466Z,86.84
2019-04-29T04:57:46.857Z,87.15
2019-04-29T05:00:23.272Z,87.24
2019-04-29T05:02:51.766Z,87.26
2019-04-29T05:05:20.184Z,87.23
2019-04-29T05:07:48.849Z,87.41
2019-04-29T05:10:17.277Z,87.38
2019-04-29T05:12:45.670Z,87.35
2019-04-29T05:15:15.027Z,87.32
2019-04-29T05:17:43.525Z,87.34
2019-04-29T05:20:12.456Z,87.41
2019-04-29T05:22:42.516Z,87.53
2019-04-29T05:25:11.102Z,87.40
2019-04-29T05:27:39.502Z,87.88
2019-04-29T05:30:08.134Z,87.61
2019-04-29T05:32:36.555Z,86.58
2019-04-29T05:35:08.029Z,86.18
2019-04-29T05:37:52.198Z,84.84
2019-04-29T05:40:40.327Z,83.89
2019-04-29T05:43:10.411Z,82.76
2019-04-29T05:45:47.803Z,81.68
2019-04-29T05:48:17.985Z,81.99
2019-04-29T05:50:52.171Z,81.53
2019-04-29T05:53:19.807Z,81.76
2019-04-29T05:55:48.214Z,81.06
2019-04-29T05:58:16.655Z,79.74
2019-04-29T06:00:46.690Z,79.65
2019-04-29T06:03:15.093Z,78.37
2019-04-29T06:05:43.512Z,77.27
2019-04-29T06:08:11.917Z,77.74
2019-04-29T06:10:42.059Z,77.58
2019-04-29T06:13:10.521Z,77.12
2019-04-29T06:15:39.174Z,77.05
2019-04-29T06:18:07.576Z,77.56
2019-04-29T06:20:36.084Z,78.94
2019-04-29T06:23:04.881Z,79.71
2019-04-29T06:25:33.280Z,79.33
2019-04-29T06:28:01.713Z,79.40
2019-04-29T06:30:30.117Z,79.42
2019-04-29T06:32:58.506Z,79.84
2019-04-29T06:35:27.007Z,80.14
2019-04-29T06:37:55.425Z,80.79
2019-04-29T06:40:23.846Z,81.15
2019-04-29T06:42:53.494Z,81.34
2019-04-29T06:45:22.447Z,80.65
2019-04-29T06:47:50.838Z,80.90
2019-04-29T06:50:19.249Z,80.79
2019-04-29T06:52:47.643Z,80.92
2019-04-29T06:55:16.040Z,80.72
2019-04-29T06:57:44.481Z,80.72
2019-04-29T07:00:17.513Z,80.64
2019-04-29T07:02:45.508Z,80.88
2019-04-29T07:05:14.361Z,81.65
2019-04-29T07:07:42.777Z,81.50
2019-04-29T07:10:11.336Z,81.76
2019-04-29T07:12:42.831Z,81.78
2019-04-29T07:15:12.312Z,81.83
2019-04-29T07:17:41.291Z,81.32
2019-04-29T07:20:11.049Z,80.99
2019-04-29T07:22:39.455Z,81.20
2019-04-29T07:25:07.926Z,80.27
2019-04-29T07:27:43.074Z,80.00
2019-04-29T07:30:08.517Z,80.10
2019-04-29T07:32:37.061Z,79.84
2019-04-29T07:35:09.849Z,79.81
2019-04-29T07:37:37.520Z,80.68
2019-04-29T07:40:07.986Z,80.18
2019-04-29T07:42:37.350Z,78.34
2019-04-29T07:45:28.220Z,78.28
2019-04-29T07:47:57.044Z,77.11
2019-04-29T07:50:26.629Z,77.11
2019-04-29T07:52:55.844Z,75.72
2019-04-29T07:55:26.123Z,75.77
2019-04-29T07:57:54.382Z,76.27
2019-04-29T08:00:36.206Z,77.37
2019-04-29T08:03:07.337Z,75.97
2019-04-29T08:05:36.270Z,76.64
2019-04-29T08:08:05.239Z,76.96
2019-04-29T08:10:33.999Z,75.76
2019-04-29T08:13:02.465Z,74.77
2019-04-29T08:15:32.080Z,73.87
2019-04-29T08:18:06.839Z,74.54
2019-04-29T08:20:30.629Z,71.22
2019-04-29T08:23:02.544Z,68.71
2019-04-29T08:25:29.211Z,67.46
2019-04-29T08:27:57.578Z,67.34
2019-04-29T08:30:26.011Z,66.17
2019-04-29T08:32:54.402Z,65.93
2019-04-29T08:35:22.814Z,65.40
2019-04-29T08:37:51.634Z,63.83
2019-04-29T08:40:20.098Z,62.18
2019-04-29T08:43:05.189Z,61.88
2019-04-29T08:45:39.119Z,61.39
2019-04-29T08:48:07.796Z,59.92
2019-04-29T08:50:36.296Z,59.81
2019-04-29T08:53:05.268Z,58.94
2019-04-29T08:55:36.170Z,59.23
2019-04-29T08:58:06.855Z,55.31
2019-04-29T09:00:34.919Z,56.79
2019-04-29T09:03:03.309Z,56.40
2019-04-29T09:05:31.721Z,56.64
2019-04-29T09:08:00.117Z,57.25
2019-04-29T09:10:28.516Z,56.24
2019-04-29T09:12:56.937Z,56.08
2019-04-29T09:15:25.341Z,54.65
2019-04-29T09:17:53.736Z,53.38
2019-04-29T09:20:23.817Z,55.13
2019-04-29T09:22:53.860Z,52.03
2019-04-29T09:25:26.307Z,51.44
2019-04-29T09:27:56.404Z,49.52
2019-04-29T09:30:25.038Z,48.21
2019-04-29T09:32:53.435Z,46.03
2019-04-29T09:35:21.910Z,46.31
2019-04-29T09:37:53.775Z,47.85
2019-04-29T09:40:28.533Z,47.59
2019-04-29T09:43:15.498Z,48.05
2019-04-29T09:45:42.328Z,47.16
2019-04-29T09:48:10.726Z,46.67
2019-04-29T09:50:40.877Z,47.03
2019-04-29T09:53:09.285Z,45.35
2019-04-29T09:55:40.069Z,44.77
2019-04-29T09:58:07.794Z,42.80
2019-04-29T10:00:41.838Z,44.31
2019-04-29T10:03:14.638Z,45.63
2019-04-29T10:05:47.487Z,44.64
2019-04-29T10:08:15.954Z,44.38
2019-04-29T10:10:45.197Z,43.28
2019-04-29T10:13:13.694Z,43.47
2019-04-29T10:15:56.030Z,44.08
2019-04-29T10:18:25.056Z,44.16
2019-04-29T10:21:02.200Z,44.40
2019-04-29T10:23:30.616Z,41.20
2019-04-29T10:25:59.016Z,44.34
2019-04-29T10:28:27.481Z,43.88
2019-04-29T10:30:56.452Z,38.54
2019-04-29T10:33:25.756Z,40.65
2019-04-29T10:35:54.157Z,38.01
2019-04-29T10:38:22.580Z,36.15
2019-04-29T10:41:11.409Z,39.91
2019-04-29T10:43:44.547Z,40.25
2019-04-29T10:46:14.657Z,39.14
2019-04-29T10:48:44.697Z,37.63
2019-04-29T10:51:14.565Z,39.07
2019-04-29T10:53:46.727Z,38.94
2019-04-29T10:56:13.593Z,38.43
2019-04-29T10:58:42.000Z,39.41
2019-04-29T11:01:29.168Z,38.93
2019-04-29T11:04:00.961Z,40.16
2019-04-29T11:06:31.297Z,37.55
2019-04-29T11:08:59.496Z,36.95
2019-04-29T11:11:30.484Z,35.66
2019-04-29T11:14:01.546Z,35.50
2019-04-29T11:16:45.347Z,37.14
2019-04-29T11:19:05.082Z,33.68
2019-04-29T11:21:31.349Z,34.49
2019-04-29T11:24:04.510Z,35.18
2019-04-29T11:26:34.643Z,36.02
2019-04-29T11:29:05.534Z,35.09
2019-04-29T11:31:34.807Z,36.09
2019-04-29T11:34:11.683Z,35.60
2019-04-29T11:36:44.089Z,36.14
2019-04-29T11:39:13.888Z,38.11
2019-04-29T11:41:41.710Z,35.24
2019-04-29T11:44:10.116Z,35.71
2019-04-29T11:46:38.509Z,36.91
2019-04-29T11:49:07.199Z,37.78
2019-04-29T11:52:07.347Z,37.40
2019-04-29T11:54:12.756Z,35.89
2019-04-29T11:56:40.748Z,34.68
2019-04-29T11:59:16.649Z,35.19
2019-04-29T12:02:03.334Z,35.95
2019-04-29T12:04:34.628Z,40.15
2019-04-29T12:07:04.060Z,35.81
2019-04-29T12:09:33.254Z,37.37
2019-04-29T12:12:01.657Z,36.71
2019-04-29T12:14:40.981Z,36.53
2019-04-29T12:17:20.143Z,38.24
2019-04-29T12:19:50.232Z,36.78
2019-04-29T12:22:28.378Z,35.28
2019-04-29T12:24:48.753Z,36.48
2019-04-29T12:27:19.714Z,39.53
2019-04-29T12:29:48.865Z,39.77
2019-04-29T12:32:20.712Z,38.48
2019-04-29T12:34:53.777Z,38.08
2019-04-29T12:37:25.601Z,35.80
2019-04-29T12:39:55.752Z,37.10
2019-04-29T12:42:41.919Z,37.95
2019-04-29T12:45:19.301Z,34.21
2019-04-29T12:47:43.982Z,33.92
2019-04-29T12:50:12.809Z,34.98
2019-04-29T12:52:41.299Z,34.09
2019-04-29T12:55:20.401Z,35.52
2019-04-29T12:57:40.869Z,33.71
2019-04-29T13:00:11.598Z,31.97
2019-04-29T13:03:00.225Z,32.18
2019-04-29T13:05:57.517Z,34.79
2019-04-29T13:08:25.426Z,34.29
2019-04-29T13:10:55.529Z,35.54
2019-04-29T13:13:23.931Z,36.32
2019-04-29T13:16:10.598Z,34.04
2019-04-29T13:18:53.761Z,34.20
2019-04-29T13:21:19.308Z,34.72
2019-04-29T13:23:59.452Z,31.64
2019-04-29T13:26:27.757Z,32.33
2019-04-29T13:29:03.250Z,31.87
2019-04-29T13:31:20.141Z,32.70
2019-04-29T13:33:51.036Z,32.99
2019-04-29T13:36:19.703Z,34.74
2019-04-29T13:38:49.287Z,35.93
2019-04-29T13:41:23.729Z,34.87
2019-04-29T13:43:48.729Z,34.75
2019-04-29T13:46:21.513Z,35.93
2019-04-29T13:49:13.529Z,32.75
2019-04-29T13:51:42.276Z,36.77
2019-04-29T13:54:10.669Z,33.69
2019-04-29T13:56:54.551Z,32.57
2019-04-29T13:59:12.545Z,33.52
2019-04-29T14:01:58.465Z,31.85
2019-04-29T14:04:24.666Z,34.79
2019-04-29T14:06:56.944Z,32.95
2019-04-29T14:09:20.213Z,34.19
2019-04-29T14:12:01.126Z,31.72
2019-04-29T14:14:22.635Z,32.61
2019-04-29T14:16:48.872Z,32.57
2019-04-29T14:19:20.601Z,32.69
2019-04-29T14:21:47.446Z,33.34
2019-04-29T14:24:15.934Z,34.16
2019-04-29T14:26:47.763Z,34.29
2019-04-29T14:29:14.503Z,33.86
2019-04-29T14:31:43.855Z,32.80
2019-04-29T14:34:22.405Z,32.90
2019-04-29T14:36:50.818Z,33.17
2019-04-29T14:39:36.249Z,33.29
2019-04-29T14:41:55.321Z,34.51
2019-04-29T14:44:34.885Z,35.90
2019-04-29T14:47:11.014Z,35.77
2019-04-29T14:49:46.901Z,36.52
2019-04-29T14:52:15.597Z,36.52
2019-04-29T14:54:44.009Z,35.78
2019-04-29T14:57:12.419Z,35.60
2019-04-29T14:59:40.989Z,35.78
2019-04-29T15:02:16.205Z,34.85
2019-04-29T15:04:43.337Z,36.22
2019-04-29T15:07:11.794Z,36.11
2019-04-29T15:09:46.861Z,35.92
2019-04-29T15:12:23.867Z,36.42
2019-04-29T15:14:54.642Z,36.42
2019-04-29T15:17:34.421Z,36.51
2019-04-29T15:20:04.957Z,36.74
2019-04-29T15:22:34.940Z,36.30
2019-04-29T15:25:03.771Z,37.04
2019-04-29T15:27:32.143Z,38.76
2019-04-29T15:30:00.804Z,40.52
2019-04-29T15:32:29.238Z,39.36
2019-04-29T15:34:57.612Z,37.35
2019-04-29T15:37:25.997Z,38.40
2019-04-29T15:39:54.474Z,37.21
2019-04-29T15:42:22.870Z,36.29
2019-04-29T15:44:51.684Z,36.65
2019-04-29T15:47:21.470Z,36.44
2019-04-29T15:49:49.873Z,36.44
2019-04-29T15:52:21.004Z,36.34
2019-04-29T15:54:51.043Z,37.14
2019-04-29T15:57:18.901Z,37.06
2019-04-29T15:59:48.960Z,38.08
2019-04-29T16:02:17.390Z,36.56
2019-04-29T16:05:04.750Z,35.42
2019-04-29T16:07:34.362Z,35.91
2019-04-29T16:10:20.674Z,36.29
2019-04-29T16:12:54.792Z,35.14
2019-04-29T16:15:23.177Z,36.71
2019-04-29T16:17:51.913Z,34.82
2019-04-29T16:20:20.393Z,35.08
2019-04-29T16:22:48.785Z,35.60
2019-04-29T16:25:17.178Z,37.79
2019-04-29T16:27:51.521Z,36.92
2019-04-29T16:30:18.977Z,37.69
2019-04-29T16:32:47.299Z,36.28
2019-04-29T16:35:18.015Z,37.19
2019-04-29T16:37:47.648Z,35.85
2019-04-29T16:40:16.573Z,36.57
2019-04-29T16:42:49.249Z,37.37
2019-04-29T16:45:17.712Z,37.68
2019-04-29T16:47:48.661Z,38.56
2019-04-29T16:50:16.514Z,40.28
2019-04-29T16:52:44.953Z,38.94
2019-04-29T16:55:13.584Z,39.00
2019-04-29T16:57:42.231Z,38.16
2019-04-29T17:00:14.050Z,39.38
2019-04-29T17:02:42.050Z,39.09
2019-04-29T17:05:10.963Z,39.36
2019-04-29T17:07:39.359Z,41.40
2019-04-29T17:10:21.249Z,38.99
2019-04-29T17:12:50.616Z,37.85
2019-04-29T17:15:25.079Z,37.96
2019-04-29T17:17:49.255Z,37.72
2019-04-29T17:20:18.279Z,38.37
2019-04-29T17:22:46.780Z,37.93
2019-04-29T17:25:16.319Z,38.92
2019-04-29T17:27:49.297Z,38.83
2019-04-29T17:30:38.258Z,39.13
2019-04-29T17:33:27.420Z,40.13
2019-04-29T17:35:50.956Z,39.85
2019-04-29T17:38:19.597Z,40.21
2019-04-29T17:40:51.217Z,39.89
2019-04-29T17:43:28.656Z,39.37
2019-04-29T17:46:01.489Z,40.33
2019-04-29T17:48:34.459Z,39.80
2019-04-29T17:51:04.649Z,40.54
2019-04-29T17:53:35.424Z,40.42
2019-04-29T17:56:05.618Z,41.07
2019-04-29T17:58:36.006Z,40.79
2019-04-29T18:01:09.179Z,42.33
2019-04-29T18:03:55.878Z,42.20
2019-04-29T18:06:28.755Z,41.21
2019-04-29T18:08:58.854Z,41.99
2019-04-29T18:11:27.254Z,42.14
2019-04-29T18:13:56.892Z,41.96
2019-04-29T18:16:28.496Z,42.65
2019-04-29T18:19:01.921Z,41.63
2019-04-29T18:21:32.193Z,42.65
2019-04-29T18:24:15.349Z,43.14
2019-04-29T18:26:52.749Z,42.73
2019-04-29T18:29:21.343Z,43.24
2019-04-29T18:31:49.735Z,43.88
2019-04-29T18:34:18.199Z,43.81
2019-04-29T18:36:46.833Z,44.79
2019-04-29T18:39:20.211Z,45.47
2019-04-29T18:41:46.978Z,44.02
2019-04-29T18:44:19.481Z,44.91
2019-04-29T18:46:53.246Z,45.44
2019-04-29T18:49:15.994Z,45.05
2019-04-29T18:51:45.591Z,46.26
2019-04-29T18:54:13.962Z,48.33
2019-04-29T18:56:42.343Z,47.14
2019-04-29T18:59:10.756Z,49.00
2019-04-29T19:01:39.155Z,48.35
2019-04-29T19:04:20.768Z,47.96
2019-04-29T19:06:51.267Z,49.90
2019-04-29T19:09:21.068Z,53.70
2019-04-29T19:11:49.751Z,51.61
2019-04-29T19:14:20.577Z,52.54
2019-04-29T19:16:48.249Z,52.40
2019-04-29T19:19:18.810Z,51.35
2019-04-29T19:21:47.472Z,51.68
2019-04-29T19:24:16.266Z,51.32
2019-04-29T19:26:44.958Z,52.48
2019-04-29T19:29:13.334Z,53.46
2019-04-29T19:31:48.105Z,55.70
2019-04-29T19:34:14.805Z,57.70
2019-04-29T19:36:42.088Z,55.34
2019-04-29T19:39:10.488Z,58.28
2019-04-29T19:41:38.978Z,58.92
2019-04-29T19:44:07.950Z,58.22
2019-04-29T19:46:38.483Z,58.88
2019-04-29T19:49:09.879Z,59.67
2019-04-29T19:51:39.301Z,58.82
2019-04-29T19:54:06.761Z,57.12
2019-04-29T19:56:36.272Z,57.02
2019-04-29T19:59:11.989Z,55.69
2019-04-29T20:01:37.364Z,56.07
2019-04-29T20:04:13.909Z,57.64
2019-04-29T20:06:37.930Z,57.85
2019-04-29T20:09:14.609Z,58.81
2019-04-29T20:11:39.454Z,59.05
2019-04-29T20:14:18.206Z,58.59
2019-04-29T20:16:44.569Z,58.22
2019-04-29T20:19:21.003Z,58.08
2019-04-29T20:21:47.258Z,58.83
2019-04-29T20:24:17.528Z,59.10
2019-04-29T20:26:47.065Z,61.97
2019-04-29T20:29:16.191Z,61.92
2019-04-29T20:31:51.557Z,61.39
2019-04-29T20:34:20.354Z,60.89
2019-04-29T20:36:45.779Z,62.45
2019-04-29T20:39:16.950Z,63.06
2019-04-29T20:41:47.040Z,62.56
2019-04-29T20:44:16.256Z,61.63
2019-04-29T20:47:12.376Z,61.00
2019-04-29T20:49:16.109Z,60.70
2019-04-29T20:51:51.653Z,61.58
2019-04-29T20:54:19.573Z,60.47
2019-04-29T20:56:48.518Z,61.15
2019-04-29T20:59:17.228Z,62.02
2019-04-29T21:01:47.460Z,62.17
2019-04-29T21:04:30.516Z,62.00
2019-04-29T21:06:58.962Z,61.28
2019-04-29T21:09:16.832Z,63.51
2019-04-29T21:12:03.281Z,62.83
2019-04-29T21:14:34.405Z,62.60
2019-04-29T21:17:09.410Z,62.72
2019-04-29T21:19:33.670Z,62.76
2019-04-29T21:22:02.070Z,63.28
2019-04-29T21:24:30.461Z,62.68
2019-04-29T21:26:58.961Z,64.15
2019-04-29T21:29:27.366Z,63.76
2019-04-29T21:32:01.468Z,63.76
2019-04-29T21:34:29.681Z,63.33
2019-04-29T21:37:15.668Z,64.45
2019-04-29T21:39:48.445Z,63.80
2019-04-29T21:42:35.721Z,61.65
2019-04-29T21:45:03.508Z,62.73
2019-04-29T21:47:41.601Z,61.50
2019-04-29T21:50:00.789Z,61.55
2019-04-29T21:52:29.210Z,61.34
2019-04-29T21:54:57.603Z,62.59
2019-04-29T21:57:26.017Z,60.38
2019-04-29T21:59:55.548Z,61.05
2019-04-29T22:02:26.100Z,60.41
2019-04-29T22:04:55.171Z,60.03
2019-04-29T22:07:25.646Z,60.96
2019-04-29T22:09:55.568Z,60.75
2019-04-29T22:12:24.175Z,61.52
2019-04-29T22:14:54.212Z,61.56
2019-04-29T22:17:26.258Z,61.36
2019-04-29T22:19:57.376Z,62.50
2019-04-29T22:22:23.105Z,62.16
2019-04-29T22:24:51.739Z,62.74
2019-04-29T22:27:20.379Z,61.37
2019-04-29T22:29:48.872Z,61.52
2019-04-29T22:32:19.162Z,61.37
2019-04-29T22:34:49.428Z,62.02
2019-04-29T22:37:20.680Z,62.00
2019-04-29T22:39:48.240Z,63.07
2019-04-29T22:42:18.340Z,63.81
2019-04-29T22:44:46.893Z,64.62
2019-04-29T22:47:17.238Z,63.85
2019-04-29T22:49:45.398Z,64.64
2019-04-29T22:52:14.061Z,64.25
2019-04-29T22:54:42.701Z,64.67
2019-04-29T22:57:11.096Z,65.41
2019-04-29T22:59:39.596Z,65.25
2019-04-29T23:02:07.989Z,65.72
2019-04-29T23:04:36.385Z,66.08
2019-04-29T23:07:04.885Z,65.67
2019-04-29T23:09:33.291Z,65.99
2019-04-29T23:12:01.681Z,66.40
2019-04-29T23:14:30.250Z,67.58
2019-04-29T23:19:32.387Z,66.61
2019-04-29T23:22:10.590Z,67.43
2019-04-29T23:24:55.864Z,66.98
2019-04-29T23:27:25.867Z,67.61
2019-04-29T23:29:54.454Z,67.00
2019-04-29T23:32:22.844Z,68.45
2019-04-29T23:34:51.579Z,67.34
2019-04-29T23:37:23.848Z,67.26
2019-04-29T23:39:50.086Z,67.40
2019-04-29T23:42:18.682Z,68.02
2019-04-29T23:44:47.151Z,67.98
2019-04-29T23:47:17.645Z,67.94
2019-04-29T23:49:46.799Z,67.65
2019-04-29T23:52:16.039Z,67.07
2019-04-29T23:54:48.477Z,67.02
2019-04-29T23:57:23.776Z,66.96
